Time;durP1;ratioP1;P1;durP2;ratioP2;P2;SDS_P1;SDS_P2;PMS_P1;PMS_P2;Temp;Humidity;BMP_temperature;BMP_pressure;BME280_temperature;BME280_humidity;BME280_pressure;Samples;Min_cycle;Max_cycle;Signal;HPM_P1;HPM_P2
2022/11/08 00:01:30;;;;;;;14.10;4.03;;;;;;;;;;5031044;28;20469;-78
2022/11/08 00:03:57;;;;;;;12.80;4.60;;;;;;;;;;5032191;28;20054;-77
2022/11/08 00:14:37;;;;;;;11.68;3.85;;;;;;;;;;5029262;28;20054;-78
2022/11/08 00:17:03;;;;;;;12.57;4.65;;;;;;;;;;5023910;28;20425;-78
2022/11/08 00:19:29;;;;;;;10.32;4.03;;;;;;;;;;5027451;28;20061;-78
2022/11/08 00:21:55;;;;;;;15.20;4.70;;;;;;;;;;5032995;28;20049;-78
2022/11/08 00:24:21;;;;;;;12.23;4.22;;;;;;;;;;5032627;28;20046;-78
2022/11/08 00:26:47;;;;;;;10.07;4.47;;;;;;;;;;5034413;28;20052;-78
2022/11/08 00:29:14;;;;;;;13.85;4.30;;;;;;;;;;5033115;28;20134;-78
2022/11/08 00:31:40;;;;;;;12.93;4.85;;;;;;;;;;5033292;28;20473;-78
2022/11/08 00:34:06;;;;;;;16.80;5.03;;;;;;;;;;5039798;28;20416;-78
2022/11/08 00:36:32;;;;;;;15.02;4.38;;;;;;;;;;5047867;28;20053;-78
2022/11/08 00:38:58;;;;;;;12.05;4.30;;;;;;;;;;5039639;28;20038;-78
2022/11/08 00:41:24;;;;;;;8.35;3.92;;;;;;;;;;5040874;28;20050;-78
2022/11/08 00:43:50;;;;;;;10.73;4.28;;;;;;;;;;5040552;28;20045;-78
2022/11/08 00:46:16;;;;;;;9.85;3.55;;;;;;;;;;5039687;28;20056;-78
2022/11/08 00:48:42;;;;;;;9.90;3.75;;;;;;;;;;5040737;28;20511;-78
2022/11/08 00:51:10;;;;;;;13.77;4.78;;;;;;;;;;5038921;28;20052;-78
2022/11/08 00:53:37;;;;;;;14.50;4.10;;;;;;;;;;5040406;28;20041;-78
2022/11/08 00:56:04;;;;;;;10.57;4.13;;;;;;;;;;5040236;28;20045;-78
2022/11/08 00:58:30;;;;;;;12.40;4.18;;;;;;;;;;5040836;28;20053;-78
2022/11/08 01:00:57;;;;;;;12.68;4.40;;;;;;;;;;5039697;28;20530;-78
2022/11/08 01:03:23;;;;;;;12.77;4.88;;;;;;;;;;5039337;28;20045;-78
2022/11/08 01:05:51;;;;;;;11.13;3.70;;;;;;;;;;5035125;28;20100;-78
2022/11/08 01:08:18;;;;;;;12.38;4.20;;;;;;;;;;5028712;28;20124;-78
2022/11/08 01:10:44;;;;;;;10.52;4.07;;;;;;;;;;5032954;28;20054;-78
2022/11/08 01:13:11;;;;;;;9.82;3.72;;;;;;;;;;5021259;28;20065;-78
2022/11/08 01:15:39;;;;;;;11.95;4.10;;;;;;;;;;5034457;28;20067;-78
2022/11/08 01:18:07;;;;;;;8.13;3.17;;;;;;;;;;5020350;28;20050;-78
2022/11/08 01:20:33;;;;;;;10.82;4.22;;;;;;;;;;5027645;28;20041;-78
2022/11/08 01:23:00;;;;;;;9.18;4.00;;;;;;;;;;5040371;28;20049;-78
2022/11/08 01:25:26;;;;;;;12.57;3.70;;;;;;;;;;5040120;28;20045;-78
2022/11/08 01:27:52;;;;;;;8.93;3.25;;;;;;;;;;5036621;28;20067;-78
2022/11/08 01:30:18;;;;;;;9.50;4.03;;;;;;;;;;5039219;28;20037;-78
2022/11/08 01:32:44;;;;;;;10.90;4.07;;;;;;;;;;5040219;28;20408;-78
2022/11/08 01:35:10;;;;;;;11.90;3.65;;;;;;;;;;5039029;28;20046;-79
2022/11/08 01:37:36;;;;;;;13.48;3.78;;;;;;;;;;5038859;28;20057;-78
2022/11/08 01:40:02;;;;;;;8.57;3.83;;;;;;;;;;5037071;28;20041;-78
2022/11/08 01:42:28;;;;;;;12.10;4.03;;;;;;;;;;5020378;28;20612;-78
2022/11/08 01:45:01;;;;;;;9.18;3.42;;;;;;;;;;5028294;28;20049;-78
2022/11/08 01:47:28;;;;;;;12.70;4.03;;;;;;;;;;5036768;28;20481;-78
2022/11/08 01:49:56;;;;;;;10.18;3.58;;;;;;;;;;5036214;28;20382;-78
2022/11/08 01:52:22;;;;;;;10.07;3.60;;;;;;;;;;5036885;28;20428;-78
2022/11/08 01:54:54;;;;;;;12.63;4.45;;;;;;;;;;5036150;28;20099;-78
2022/11/08 01:57:41;;;;;;;10.25;3.50;;;;;;;;;;5037072;28;20397;-78
2022/11/08 02:00:09;;;;;;;10.50;3.45;;;;;;;;;;5036849;28;20603;-78
2022/11/08 02:02:36;;;;;;;9.48;3.67;;;;;;;;;;5036629;28;20045;-78
2022/11/08 02:05:03;;;;;;;9.95;3.53;;;;;;;;;;5035282;28;20050;-78
2022/11/08 02:07:30;;;;;;;7.68;3.30;;;;;;;;;;5032673;28;20046;-78
2022/11/08 02:09:57;;;;;;;10.18;3.78;;;;;;;;;;5062431;28;20072;-78
2022/11/08 02:12:23;;;;;;;12.02;3.78;;;;;;;;;;5034095;28;20061;-78
2022/11/08 02:14:49;;;;;;;13.38;4.68;;;;;;;;;;5029144;28;20049;-77
2022/11/08 02:17:15;;;;;;;10.73;3.85;;;;;;;;;;5029449;28;20060;-78
2022/11/08 02:19:46;;;;;;;8.35;3.85;;;;;;;;;;5035375;28;20081;-77
2022/11/08 02:22:15;;;;;;;9.55;3.58;;;;;;;;;;5031198;28;20048;-78
2022/11/08 02:24:41;;;;;;;11.98;3.60;;;;;;;;;;5036387;28;20084;-78
2022/11/08 02:27:07;;;;;;;10.10;4.07;;;;;;;;;;5034237;28;20067;-78
2022/11/08 02:29:35;;;;;;;7.47;3.63;;;;;;;;;;5034532;28;20172;-78
2022/11/08 02:32:01;;;;;;;9.80;3.60;;;;;;;;;;5019885;28;20060;-78
2022/11/08 02:34:30;;;;;;;9.95;3.35;;;;;;;;;;5013508;22;20378;-85
2022/11/08 02:36:56;;;;;;;7.10;3.40;;;;;;;;;;4987062;28;20057;-85
2022/11/08 02:39:22;;;;;;;8.25;3.40;;;;;;;;;;4999182;28;20046;-84
2022/11/08 02:41:48;;;;;;;6.65;3.28;;;;;;;;;;5006968;28;20054;-84
2022/11/08 02:44:14;;;;;;;8.75;3.58;;;;;;;;;;4996714;28;20053;-85
2022/11/08 02:46:40;;;;;;;9.40;3.40;;;;;;;;;;4990722;28;20440;-85
2022/11/08 02:49:06;;;;;;;12.18;3.55;;;;;;;;;;4991716;28;20094;-84
2022/11/08 02:51:32;;;;;;;14.95;4.10;;;;;;;;;;4992114;28;20418;-85
2022/11/08 02:53:59;;;;;;;9.90;3.47;;;;;;;;;;4981918;28;20057;-84
2022/11/08 02:56:25;;;;;;;7.50;3.47;;;;;;;;;;4989965;28;20046;-84
2022/11/08 02:58:51;;;;;;;7.95;3.55;;;;;;;;;;5003332;28;20044;-85
2022/11/08 03:01:17;;;;;;;11.90;3.75;;;;;;;;;;4995200;28;20129;-84
2022/11/08 03:03:43;;;;;;;12.20;4.10;;;;;;;;;;4992448;28;20069;-84
2022/11/08 03:06:09;;;;;;;9.20;3.70;;;;;;;;;;4996658;28;20084;-84
2022/11/08 03:08:35;;;;;;;10.32;3.85;;;;;;;;;;5007078;28;20455;-85
2022/11/08 03:11:01;;;;;;;9.45;3.75;;;;;;;;;;4989951;28;20089;-85
2022/11/08 03:13:27;;;;;;;9.80;3.50;;;;;;;;;;4989089;28;20046;-84
2022/11/08 03:15:53;;;;;;;8.52;3.70;;;;;;;;;;4990623;28;20104;-84
2022/11/08 03:18:19;;;;;;;9.40;3.50;;;;;;;;;;4989642;28;20057;-84
2022/11/08 03:20:45;;;;;;;9.75;3.45;;;;;;;;;;4989508;28;20050;-84
2022/11/08 03:23:11;;;;;;;11.50;3.60;;;;;;;;;;4973107;28;20041;-85
2022/11/08 03:25:37;;;;;;;7.43;3.00;;;;;;;;;;4988632;28;20049;-85
2022/11/08 03:28:08;;;;;;;7.85;3.40;;;;;;;;;;5001329;28;20133;-83
2022/11/08 03:30:34;;;;;;;9.25;3.40;;;;;;;;;;5003286;28;20046;-84
2022/11/08 03:33:00;;;;;;;9.68;3.53;;;;;;;;;;5006235;28;20211;-84
2022/11/08 03:35:26;;;;;;;8.73;3.47;;;;;;;;;;4989107;28;20197;-84
2022/11/08 03:37:53;;;;;;;8.20;3.03;;;;;;;;;;4990248;28;20065;-84
2022/11/08 03:40:20;;;;;;;10.45;3.20;;;;;;;;;;4997442;28;20123;-84
2022/11/08 03:42:46;;;;;;;11.45;3.30;;;;;;;;;;5004337;28;20049;-84
2022/11/08 03:45:13;;;;;;;9.35;3.63;;;;;;;;;;4990449;28;20039;-84
2022/11/08 03:47:40;;;;;;;11.35;3.40;;;;;;;;;;5006402;28;20120;-84
2022/11/08 03:50:07;;;;;;;8.63;3.95;;;;;;;;;;5003937;28;20034;-84
2022/11/08 03:52:43;;;;;;;8.13;3.33;;;;;;;;;;4986857;28;20230;-85
2022/11/08 03:55:09;;;;;;;11.95;3.85;;;;;;;;;;4993071;28;20160;-84
2022/11/08 03:57:36;;;;;;;9.80;3.60;;;;;;;;;;5008787;28;20061;-84
2022/11/08 04:00:03;;;;;;;9.02;3.42;;;;;;;;;;4996188;28;20049;-84
2022/11/08 04:02:29;;;;;;;8.20;3.17;;;;;;;;;;5003248;28;20033;-84
2022/11/08 04:04:55;;;;;;;6.18;2.90;;;;;;;;;;5003080;28;20066;-84
2022/11/08 04:07:21;;;;;;;8.57;3.50;;;;;;;;;;4975405;28;20148;-84
2022/11/08 04:09:47;;;;;;;9.10;3.55;;;;;;;;;;5001215;28;20502;-85
2022/11/08 04:15:16;;;;;;;5.90;3.20;;;;;;;;;;5009422;28;20128;-84
2022/11/08 04:23:12;;;;;;;8.32;4.15;;;;;;;;;;4988527;28;20050;-84
2022/11/08 04:25:38;;;;;;;6.88;3.20;;;;;;;;;;5009039;28;20037;-84
2022/11/08 04:28:04;;;;;;;8.68;3.33;;;;;;;;;;5004924;28;20092;-84
2022/11/08 04:30:31;;;;;;;6.65;3.40;;;;;;;;;;5008968;28;20054;-84
2022/11/08 04:33:00;;;;;;;9.73;3.67;;;;;;;;;;4992722;28;20067;-84
2022/11/08 04:35:26;;;;;;;9.43;3.15;;;;;;;;;;4988586;28;20052;-85
2022/11/08 04:37:52;;;;;;;7.72;3.35;;;;;;;;;;5001727;28;20474;-84
2022/11/08 04:40:18;;;;;;;8.63;3.30;;;;;;;;;;4990100;28;20046;-85
2022/11/08 04:42:44;;;;;;;8.30;3.70;;;;;;;;;;5006566;28;20046;-85
2022/11/08 04:45:10;;;;;;;6.45;3.70;;;;;;;;;;4983866;28;20080;-84
2022/11/08 04:47:36;;;;;;;10.13;3.47;;;;;;;;;;5006727;28;20048;-84
2022/11/08 04:50:02;;;;;;;10.60;3.67;;;;;;;;;;4992694;28;20042;-85
2022/11/08 04:52:28;;;;;;;8.25;3.00;;;;;;;;;;4994673;28;20040;-84
2022/11/08 04:54:54;;;;;;;11.20;3.85;;;;;;;;;;5011046;28;20046;-84
2022/11/08 04:57:20;;;;;;;6.90;3.80;;;;;;;;;;4995208;28;20042;-84
2022/11/08 04:59:46;;;;;;;8.15;3.65;;;;;;;;;;5009020;28;20072;-85
2022/11/08 05:02:12;;;;;;;10.27;3.80;;;;;;;;;;5004244;28;20034;-84
2022/11/08 05:04:38;;;;;;;10.00;3.60;;;;;;;;;;5004423;28;20038;-84
2022/11/08 05:07:04;;;;;;;9.40;3.80;;;;;;;;;;4987172;28;20038;-84
2022/11/08 05:09:30;;;;;;;8.25;3.70;;;;;;;;;;4988464;28;20057;-85
2022/11/08 05:11:56;;;;;;;11.35;4.97;;;;;;;;;;4987014;28;20038;-84
2022/11/08 05:14:22;;;;;;;9.10;3.80;;;;;;;;;;4987881;28;20042;-84
2022/11/08 05:16:48;;;;;;;11.07;4.03;;;;;;;;;;4995941;28;20068;-85
2022/11/08 05:23:22;;;;;;;9.50;3.85;;;;;;;;;;5005193;28;20149;-84
2022/11/08 05:24:45;;;;;;;8.07;3.50;;;;;;;;;;4992054;28;20046;-84
2022/11/08 05:27:11;;;;;;;10.82;3.95;;;;;;;;;;5010904;28;20038;-84
2022/11/08 05:29:37;;;;;;;9.43;3.75;;;;;;;;;;5003104;28;20049;-84
2022/11/08 05:32:03;;;;;;;8.70;3.78;;;;;;;;;;5003095;28;20064;-84
2022/11/08 05:34:29;;;;;;;8.50;3.60;;;;;;;;;;5011161;28;20077;-85
2022/11/08 05:36:55;;;;;;;9.30;3.38;;;;;;;;;;5008210;28;20062;-84
2022/11/08 05:39:21;;;;;;;9.43;3.50;;;;;;;;;;5013289;28;20046;-84
2022/11/08 05:41:47;;;;;;;8.85;3.90;;;;;;;;;;5010423;28;20517;-84
2022/11/08 05:44:13;;;;;;;5.90;3.65;;;;;;;;;;5009331;28;20042;-85
2022/11/08 05:46:39;;;;;;;8.43;3.78;;;;;;;;;;5002463;28;20069;-84
2022/11/08 05:49:05;;;;;;;11.32;4.60;;;;;;;;;;4992830;28;20038;-84
2022/11/08 05:51:32;;;;;;;9.25;3.70;;;;;;;;;;5011256;28;20041;-84
2022/11/08 05:53:58;;;;;;;6.35;3.58;;;;;;;;;;5011032;28;20112;-85
2022/11/08 05:56:24;;;;;;;15.38;4.32;;;;;;;;;;5010544;28;20041;-85
2022/11/08 05:58:50;;;;;;;8.32;3.33;;;;;;;;;;4998021;28;20046;-84
2022/11/08 06:01:17;;;;;;;9.27;3.35;;;;;;;;;;4996741;28;20044;-84
2022/11/08 06:03:44;;;;;;;5.35;3.22;;;;;;;;;;5003119;28;20084;-84
2022/11/08 06:06:12;;;;;;;12.25;3.75;;;;;;;;;;5002245;28;20038;-85
2022/11/08 06:08:38;;;;;;;6.72;3.35;;;;;;;;;;4993672;28;20514;-85
2022/11/08 06:11:04;;;;;;;9.65;3.65;;;;;;;;;;4994505;28;20034;-85
2022/11/08 06:13:31;;;;;;;9.82;3.75;;;;;;;;;;4999724;28;20510;-85
2022/11/08 06:16:04;;;;;;;8.68;3.33;;;;;;;;;;4999835;28;20398;-85
2022/11/08 06:18:31;;;;;;;6.78;3.42;;;;;;;;;;5000429;28;20045;-84
2022/11/08 06:20:58;;;;;;;6.43;3.10;;;;;;;;;;5009135;28;20057;-85
2022/11/08 06:23:24;;;;;;;8.52;3.15;;;;;;;;;;5011523;28;20060;-85
2022/11/08 06:25:50;;;;;;;10.63;3.50;;;;;;;;;;4995976;28;20038;-85
2022/11/08 06:28:16;;;;;;;10.35;3.13;;;;;;;;;;4992370;28;20048;-84
2022/11/08 06:30:42;;;;;;;4.60;3.40;;;;;;;;;;4990291;28;20097;-85
2022/11/08 06:33:08;;;;;;;7.78;3.30;;;;;;;;;;4990530;28;20058;-85
2022/11/08 06:35:35;;;;;;;7.57;3.65;;;;;;;;;;4989988;28;20100;-85
2022/11/08 06:38:01;;;;;;;8.30;3.28;;;;;;;;;;4989297;28;20042;-85
2022/11/08 06:40:28;;;;;;;9.13;3.58;;;;;;;;;;5006667;28;20514;-85
2022/11/08 06:42:54;;;;;;;7.50;3.10;;;;;;;;;;4990242;28;20398;-85
2022/11/08 06:45:20;;;;;;;5.00;3.40;;;;;;;;;;4989816;28;20555;-85
2022/11/08 06:47:46;;;;;;;8.77;3.13;;;;;;;;;;4989277;28;20046;-85
2022/11/08 06:50:12;;;;;;;8.35;3.30;;;;;;;;;;4973820;28;20044;-85
2022/11/08 06:52:39;;;;;;;8.95;3.53;;;;;;;;;;4990201;28;20042;-85
2022/11/08 06:55:06;;;;;;;7.03;2.97;;;;;;;;;;4993793;28;20096;-85
2022/11/08 06:57:32;;;;;;;7.38;3.33;;;;;;;;;;4997897;28;20038;-87
2022/11/08 06:59:59;;;;;;;6.57;3.33;;;;;;;;;;4990881;28;20073;-85
2022/11/08 07:02:25;;;;;;;6.00;3.17;;;;;;;;;;4989282;28;20490;-83
2022/11/08 07:04:51;;;;;;;6.50;3.10;;;;;;;;;;4990075;28;20498;-84
2022/11/08 07:07:17;;;;;;;6.50;3.13;;;;;;;;;;5000201;28;20081;-84
2022/11/08 07:09:43;;;;;;;5.65;3.03;;;;;;;;;;5004191;28;20077;-85
2022/11/08 07:12:09;;;;;;;5.18;3.40;;;;;;;;;;5006432;28;20124;-84
2022/11/08 07:14:35;;;;;;;8.55;3.28;;;;;;;;;;4989415;28;20038;-84
2022/11/08 07:17:01;;;;;;;6.70;3.20;;;;;;;;;;5006716;28;20037;-84
2022/11/08 07:19:27;;;;;;;5.85;2.80;;;;;;;;;;5007569;28;20050;-84
2022/11/08 07:21:53;;;;;;;9.02;3.60;;;;;;;;;;4995980;28;20042;-84
2022/11/08 07:24:19;;;;;;;5.28;3.30;;;;;;;;;;4995210;28;20046;-85
2022/11/08 07:26:45;;;;;;;8.10;3.15;;;;;;;;;;4990534;28;20050;-84
2022/11/08 07:29:11;;;;;;;5.65;3.15;;;;;;;;;;4988493;28;20047;-87
2022/11/08 07:31:41;;;;;;;7.18;3.35;;;;;;;;;;4989229;28;20046;-86
2022/11/08 07:34:07;;;;;;;7.38;3.47;;;;;;;;;;4989244;28;20133;-87
2022/11/08 07:36:33;;;;;;;5.68;2.60;;;;;;;;;;5005231;28;20057;-87
2022/11/08 07:38:59;;;;;;;7.55;3.90;;;;;;;;;;4987924;28;20042;-85
2022/11/08 07:41:25;;;;;;;5.53;3.47;;;;;;;;;;4989589;28;20042;-84
2022/11/08 07:43:51;;;;;;;6.88;3.10;;;;;;;;;;4987087;28;20034;-85
2022/11/08 07:46:17;;;;;;;7.53;3.40;;;;;;;;;;4988355;28;20073;-85
2022/11/08 07:48:43;;;;;;;5.47;3.10;;;;;;;;;;5005730;28;20042;-85
2022/11/08 07:51:09;;;;;;;5.75;3.35;;;;;;;;;;4989396;28;20078;-85
2022/11/08 07:53:35;;;;;;;4.65;2.80;;;;;;;;;;4988744;28;20054;-85
2022/11/08 07:56:01;;;;;;;5.15;3.05;;;;;;;;;;4989302;28;20050;-85
2022/11/08 07:58:27;;;;;;;4.80;2.72;;;;;;;;;;4989861;28;20186;-85
2022/11/08 08:00:53;;;;;;;7.10;2.63;;;;;;;;;;4990876;28;20545;-87
2022/11/08 08:03:20;;;;;;;6.65;3.30;;;;;;;;;;4991566;28;20042;-85
2022/11/08 08:05:50;;;;;;;7.70;3.60;;;;;;;;;;4972103;28;20047;-85
2022/11/08 08:08:16;;;;;;;4.95;2.78;;;;;;;;;;4971344;28;20055;-85
2022/11/08 08:10:42;;;;;;;7.65;3.75;;;;;;;;;;4977465;28;20038;-85
2022/11/08 08:13:08;;;;;;;7.70;3.17;;;;;;;;;;4989293;28;20038;-86
2022/11/08 08:15:34;;;;;;;7.28;3.45;;;;;;;;;;4989581;28;20049;-86
2022/11/08 08:18:01;;;;;;;6.00;2.92;;;;;;;;;;4990470;28;20376;-88
2022/11/08 08:20:28;;;;;;;4.10;2.70;;;;;;;;;;4989377;28;20088;-88
2022/11/08 08:22:54;;;;;;;5.18;2.67;;;;;;;;;;4985727;28;20498;-85
2022/11/08 08:25:20;;;;;;;6.47;3.10;;;;;;;;;;4986752;28;20041;-86
2022/11/08 08:27:49;;;;;;;5.13;3.15;;;;;;;;;;4986319;28;20046;-85
2022/11/08 08:30:16;;;;;;;7.07;3.10;;;;;;;;;;4984138;28;20738;-85
2022/11/08 08:32:42;;;;;;;5.43;3.00;;;;;;;;;;4980379;28;20034;-82
2022/11/08 08:35:08;;;;;;;6.15;3.10;;;;;;;;;;4983012;28;20046;-85
2022/11/08 08:37:34;;;;;;;6.72;3.10;;;;;;;;;;4984558;28;20380;-85
2022/11/08 08:40:00;;;;;;;6.60;3.30;;;;;;;;;;5000540;28;20363;-86
2022/11/08 08:42:26;;;;;;;4.90;3.00;;;;;;;;;;4988843;28;20034;-86
2022/11/08 08:44:52;;;;;;;6.03;3.40;;;;;;;;;;4989101;28;20140;-88
2022/11/08 08:47:18;;;;;;;7.13;3.75;;;;;;;;;;4988946;28;20326;-86
2022/11/08 08:49:44;;;;;;;5.40;3.08;;;;;;;;;;4988844;28;20050;-87
2022/11/08 08:52:10;;;;;;;5.50;3.40;;;;;;;;;;4989768;28;20054;-86
2022/11/08 08:54:36;;;;;;;8.30;3.15;;;;;;;;;;4992474;28;20043;-86
2022/11/08 08:57:03;;;;;;;5.28;2.90;;;;;;;;;;5007405;28;20037;-86
2022/11/08 08:59:29;;;;;;;5.00;3.10;;;;;;;;;;4993155;28;20049;-88
2022/11/08 09:01:55;;;;;;;6.65;3.28;;;;;;;;;;4992843;28;20491;-88
2022/11/08 09:04:21;;;;;;;6.32;3.05;;;;;;;;;;4991515;28;20081;-85
2022/11/08 09:06:47;;;;;;;8.38;3.53;;;;;;;;;;4992419;28;20117;-85
2022/11/08 09:09:13;;;;;;;6.03;2.97;;;;;;;;;;4991757;28;20044;-85
2022/11/08 09:11:39;;;;;;;6.30;3.28;;;;;;;;;;4991324;28;20046;-85
2022/11/08 09:14:05;;;;;;;6.75;3.35;;;;;;;;;;4990462;28;20074;-85
2022/11/08 09:16:31;;;;;;;4.85;3.00;;;;;;;;;;4987112;28;20321;-84
2022/11/08 09:18:57;;;;;;;4.90;2.90;;;;;;;;;;4991520;28;20038;-84
2022/11/08 09:21:23;;;;;;;4.47;2.90;;;;;;;;;;4993580;28;20038;-84
2022/11/08 09:23:49;;;;;;;6.30;3.22;;;;;;;;;;4977963;28;20041;-83
2022/11/08 09:26:15;;;;;;;4.90;3.20;;;;;;;;;;4991093;28;20503;-84
2022/11/08 09:28:41;;;;;;;5.53;3.30;;;;;;;;;;4990100;28;20056;-84
2022/11/08 09:31:08;;;;;;;6.20;3.30;;;;;;;;;;4991253;28;20045;-84
2022/11/08 09:33:35;;;;;;;5.63;3.58;;;;;;;;;;4992960;28;20100;-84
2022/11/08 09:36:02;;;;;;;6.28;2.90;;;;;;;;;;4992718;28;20054;-84
2022/11/08 09:38:29;;;;;;;5.88;2.97;;;;;;;;;;4992050;28;20038;-84
2022/11/08 09:41:14;;;;;;;7.10;3.40;;;;;;;;;;4986687;28;20522;-84
2022/11/08 09:43:45;;;;;;;5.38;3.00;;;;;;;;;;4990370;28;20039;-84
2022/11/08 09:46:17;;;;;;;5.47;3.13;;;;;;;;;;4992259;28;20088;-84
2022/11/08 09:48:44;;;;;;;7.70;4.05;;;;;;;;;;4992600;28;20072;-84
2022/11/08 09:51:15;;;;;;;6.45;3.10;;;;;;;;;;4980116;28;20092;-84
2022/11/08 09:53:49;;;;;;;7.70;3.38;;;;;;;;;;4991052;28;20222;-84
2022/11/08 09:56:23;;;;;;;6.72;3.28;;;;;;;;;;4990620;28;20057;-84
2022/11/08 09:58:49;;;;;;;6.57;3.40;;;;;;;;;;4990839;28;20050;-84
2022/11/08 10:01:15;;;;;;;6.20;3.45;;;;;;;;;;4971103;28;20129;-85
2022/11/08 10:03:43;;;;;;;6.18;3.00;;;;;;;;;;4991534;28;20079;-85
2022/11/08 10:06:12;;;;;;;3.75;2.60;;;;;;;;;;4988278;28;20417;-89
2022/11/08 10:08:38;;;;;;;5.60;3.15;;;;;;;;;;4991132;28;20117;-84
2022/11/08 10:11:14;;;;;;;5.03;2.83;;;;;;;;;;4986575;28;20172;-84
2022/11/08 10:13:46;;;;;;;8.15;3.00;;;;;;;;;;4974720;28;20481;-86
2022/11/08 10:16:20;;;;;;;4.13;2.90;;;;;;;;;;4992075;28;20054;-86
2022/11/08 10:18:54;;;;;;;2.78;2.40;;;;;;;;;;4990630;28;20042;-89
2022/11/08 10:21:23;;;;;;;10.35;3.47;;;;;;;;;;4991328;28;20042;-87
2022/11/08 10:23:55;;;;;;;3.78;2.70;;;;;;;;;;4990751;28;20046;-85
2022/11/08 10:26:29;;;;;;;6.05;2.75;;;;;;;;;;4990890;28;20038;-85
2022/11/08 10:28:57;;;;;;;4.28;2.72;;;;;;;;;;4990726;28;20042;-85
2022/11/08 10:31:24;;;;;;;3.38;2.42;;;;;;;;;;4974461;28;20042;-85
2022/11/08 10:33:58;;;;;;;3.92;2.70;;;;;;;;;;4971735;28;20054;-85
2022/11/08 10:36:31;;;;;;;5.78;2.95;;;;;;;;;;4990185;28;20049;-89
2022/11/08 10:39:02;;;;;;;6.72;3.55;;;;;;;;;;4979267;28;20045;-87
2022/11/08 10:41:39;;;;;;;3.58;2.63;;;;;;;;;;4989850;28;20056;-86
2022/11/08 10:44:06;;;;;;;3.92;2.72;;;;;;;;;;4991566;28;20054;-87
2022/11/08 10:46:37;;;;;;;6.22;3.00;;;;;;;;;;4990323;28;20046;-85
2022/11/08 10:49:15;;;;;;;5.15;2.63;;;;;;;;;;4993532;28;20034;-85
2022/11/08 10:51:42;;;;;;;5.72;2.70;;;;;;;;;;4990588;28;20403;-85
2022/11/08 10:54:08;;;;;;;13.48;3.25;;;;;;;;;;4989343;28;20578;-85
2022/11/08 10:56:53;;;;;;;5.72;3.53;;;;;;;;;;4989744;28;20506;-86
2022/11/08 10:59:29;;;;;;;7.00;3.25;;;;;;;;;;4989679;28;20351;-85
2022/11/08 11:01:55;;;;;;;6.38;3.00;;;;;;;;;;4989550;28;20069;-86
2022/11/08 11:04:25;;;;;;;4.93;3.03;;;;;;;;;;4990393;28;20038;-86
2022/11/08 11:06:51;;;;;;;5.13;3.03;;;;;;;;;;4990023;28;20046;-88
2022/11/08 11:09:18;;;;;;;4.65;2.70;;;;;;;;;;4989336;28;20105;-87
2022/11/08 11:11:45;;;;;;;6.00;2.95;;;;;;;;;;4990056;28;20038;-86
2022/11/08 11:14:15;;;;;;;5.82;2.83;;;;;;;;;;5005013;28;20120;-86
2022/11/08 11:16:50;;;;;;;4.57;2.80;;;;;;;;;;4991078;28;20061;-85
2022/11/08 11:19:16;;;;;;;6.28;2.95;;;;;;;;;;4989485;28;20042;-86
2022/11/08 11:21:43;;;;;;;4.32;2.40;;;;;;;;;;4994539;28;20041;-85
2022/11/08 11:24:17;;;;;;;5.93;2.78;;;;;;;;;;4992624;28;20122;-86
2022/11/08 11:26:46;;;;;;;4.03;2.40;;;;;;;;;;4999123;28;20038;-86
2022/11/08 11:29:15;;;;;;;6.93;2.70;;;;;;;;;;4998011;28;20101;-85
2022/11/08 11:31:42;;;;;;;5.78;2.60;;;;;;;;;;4991437;28;20035;-85
2022/11/08 11:34:14;;;;;;;4.43;2.50;;;;;;;;;;4987578;28;20069;-85
2022/11/08 11:36:40;;;;;;;5.30;2.30;;;;;;;;;;4990518;28;20068;-86
2022/11/08 11:39:10;;;;;;;4.70;2.70;;;;;;;;;;4991169;28;20057;-87
2022/11/08 11:41:45;;;;;;;5.15;2.88;;;;;;;;;;4991078;28;20042;-85
2022/11/08 11:44:18;;;;;;;4.47;3.05;;;;;;;;;;4990753;28;20438;-85
2022/11/08 11:46:51;;;;;;;7.47;3.28;;;;;;;;;;4987910;28;20045;-85
2022/11/08 11:49:19;;;;;;;5.68;3.25;;;;;;;;;;4990700;28;20372;-85
2022/11/08 11:51:45;;;;;;;6.35;3.13;;;;;;;;;;4989269;28;20104;-85
2022/11/08 11:54:14;;;;;;;8.27;3.40;;;;;;;;;;4987952;28;20054;-85
2022/11/08 11:56:59;;;;;;;5.95;2.83;;;;;;;;;;4988130;28;20132;-85
2022/11/08 11:59:57;;;;;;;5.07;2.65;;;;;;;;;;4987458;28;20042;-85
2022/11/08 12:02:35;;;;;;;5.65;2.67;;;;;;;;;;4946895;28;20479;-86
2022/11/08 12:05:04;;;;;;;6.25;2.47;;;;;;;;;;4989834;28;20042;-86
2022/11/08 12:07:31;;;;;;;4.60;2.88;;;;;;;;;;4987716;28;20038;-86
2022/11/08 12:10:04;;;;;;;5.13;2.70;;;;;;;;;;4988402;28;20050;-86
2022/11/08 12:12:30;;;;;;;4.80;3.20;;;;;;;;;;4988244;28;20050;-86
2022/11/08 12:15:22;;;;;;;5.13;3.05;;;;;;;;;;4989627;28;20100;-86
2022/11/08 12:17:56;;;;;;;6.07;2.65;;;;;;;;;;4980124;28;20054;-86
2022/11/08 12:20:25;;;;;;;4.50;2.63;;;;;;;;;;4990314;28;20125;-85
2022/11/08 12:22:57;;;;;;;5.88;3.30;;;;;;;;;;4989652;28;20105;-86
2022/11/08 12:25:26;;;;;;;6.38;3.13;;;;;;;;;;4987874;28;20565;-86
2022/11/08 12:28:01;;;;;;;3.90;2.70;;;;;;;;;;4987750;28;20050;-86
2022/11/08 12:30:33;;;;;;;3.90;2.30;;;;;;;;;;4989900;28;20049;-85
2022/11/08 12:33:05;;;;;;;9.52;2.75;;;;;;;;;;4989604;28;20125;-86
2022/11/08 12:36:01;;;;;;;4.70;2.50;;;;;;;;;;4989590;28;20077;-86
2022/11/08 12:38:42;;;;;;;15.32;3.22;;;;;;;;;;4977197;28;20403;-85
2022/11/08 12:41:10;;;;;;;4.88;2.63;;;;;;;;;;4987982;28;20057;-85
2022/11/08 12:43:55;;;;;;;4.25;2.75;;;;;;;;;;4988644;28;20042;-85
2022/11/08 12:46:21;;;;;;;4.60;2.58;;;;;;;;;;4984419;28;20090;-85
2022/11/08 12:48:47;;;;;;;3.90;2.30;;;;;;;;;;4987817;28;20046;-85
2022/11/08 12:51:24;;;;;;;3.53;2.90;;;;;;;;;;4987983;28;20483;-85
2022/11/08 12:53:53;;;;;;;3.92;2.70;;;;;;;;;;4987626;28;20117;-85
2022/11/08 12:56:28;;;;;;;5.28;3.03;;;;;;;;;;4988342;28;20093;-85
2022/11/08 12:58:54;;;;;;;6.15;3.25;;;;;;;;;;4989629;28;20038;-85
2022/11/08 13:01:21;;;;;;;4.60;2.58;;;;;;;;;;4988504;28;20093;-85
2022/11/08 13:03:50;;;;;;;4.60;2.85;;;;;;;;;;4987769;28;20038;-85
2022/11/08 13:06:35;;;;;;;5.35;3.08;;;;;;;;;;4987247;28;20088;-85
2022/11/08 13:09:01;;;;;;;4.28;2.70;;;;;;;;;;4986970;28;20384;-85
2022/11/08 13:11:32;;;;;;;3.95;2.70;;;;;;;;;;4987447;28;20519;-85
2022/11/08 13:13:59;;;;;;;4.65;2.60;;;;;;;;;;4988180;28;20030;-85
2022/11/08 13:16:29;;;;;;;6.43;3.05;;;;;;;;;;4989500;28;20118;-84
2022/11/08 13:18:56;;;;;;;4.22;2.50;;;;;;;;;;4990574;28;20062;-84
2022/11/08 13:21:33;;;;;;;4.50;2.50;;;;;;;;;;4989481;28;20525;-85
2022/11/08 13:24:02;;;;;;;6.70;2.45;;;;;;;;;;4986762;28;20270;-85
2022/11/08 13:26:30;;;;;;;3.65;2.40;;;;;;;;;;4987106;28;20042;-85
2022/11/08 13:29:23;;;;;;;3.83;2.63;;;;;;;;;;4987197;28;20061;-85
2022/11/08 13:31:49;;;;;;;5.05;2.53;;;;;;;;;;4986411;28;20053;-85
2022/11/08 13:34:21;;;;;;;4.32;2.38;;;;;;;;;;4987417;28;20101;-87
2022/11/08 13:36:53;;;;;;;3.70;2.17;;;;;;;;;;4983877;28;20070;-86
2022/11/08 13:39:22;;;;;;;4.70;2.70;;;;;;;;;;4987724;28;20246;-85
2022/11/08 13:42:07;;;;;;;4.03;2.65;;;;;;;;;;4991639;28;20039;-86
2022/11/08 13:44:56;;;;;;;3.45;2.38;;;;;;;;;;4994251;28;20042;-92
2022/11/08 13:47:35;;;;;;;6.13;2.63;;;;;;;;;;5000864;28;20042;-86
2022/11/08 13:50:20;;;;;;;5.00;2.70;;;;;;;;;;4994897;28;20108;-86
2022/11/08 13:53:00;;;;;;;3.20;2.42;;;;;;;;;;4989146;28;20050;-86
2022/11/08 13:55:42;;;;;;;4.13;2.55;;;;;;;;;;4991348;28;20376;-86
2022/11/08 13:58:27;;;;;;;3.83;2.28;;;;;;;;;;4992216;28;20107;-87
2022/11/08 14:00:56;;;;;;;10.50;3.78;;;;;;;;;;4991527;28;20054;-88
2022/11/08 14:03:34;;;;;;;4.75;2.65;;;;;;;;;;4989039;28;20046;-86
2022/11/08 14:06:06;;;;;;;4.15;2.50;;;;;;;;;;4983713;28;20046;-85
2022/11/08 14:08:42;;;;;;;6.28;2.60;;;;;;;;;;4988240;28;20054;-86
2022/11/08 14:11:17;;;;;;;5.80;2.60;;;;;;;;;;4972229;28;20046;-86
2022/11/08 14:13:56;;;;;;;5.50;2.58;;;;;;;;;;4988895;28;20481;-85
2022/11/08 14:16:25;;;;;;;5.32;2.70;;;;;;;;;;4988344;28;20105;-87
2022/11/08 14:18:51;;;;;;;7.40;3.10;;;;;;;;;;4973094;28;20097;-85
2022/11/08 14:21:18;;;;;;;7.13;3.13;;;;;;;;;;4993528;28;20490;-84
2022/11/08 14:23:46;;;;;;;14.82;9.32;;;;;;;;;;4990072;28;20038;-92
2022/11/08 14:26:31;;;;;;;13.43;6.13;;;;;;;;;;4992208;28;20053;-84
2022/11/08 14:28:59;;;;;;;8.52;4.75;;;;;;;;;;4974324;28;20443;-86
2022/11/08 14:31:30;;;;;;;11.32;8.13;;;;;;;;;;4991931;28;20042;-87
2022/11/08 14:33:56;;;;;;;6.00;4.18;;;;;;;;;;4989424;28;20054;-85
2022/11/08 14:36:23;;;;;;;9.50;6.00;;;;;;;;;;4991726;28;20050;-83
2022/11/08 14:38:51;;;;;;;14.40;8.55;;;;;;;;;;4988995;28;20049;-86
2022/11/08 14:41:25;;;;;;;13.43;8.48;;;;;;;;;;4991695;28;20182;-84
2022/11/08 14:43:52;;;;;;;11.88;7.68;;;;;;;;;;4991321;28;20491;-85
2022/11/08 14:46:24;;;;;;;13.10;8.32;;;;;;;;;;4991584;28;20077;-87
2022/11/08 14:48:53;;;;;;;7.43;4.95;;;;;;;;;;4991171;28;20117;-95
2022/11/08 14:51:19;;;;;;;10.75;7.80;;;;;;;;;;4994208;28;20490;-89
2022/11/08 14:53:46;;;;;;;8.38;5.95;;;;;;;;;;4991845;28;20038;-91
2022/11/08 14:56:17;;;;;;;11.48;8.80;;;;;;;;;;4993155;28;20372;-87
2022/11/08 14:58:43;;;;;;;9.38;4.70;;;;;;;;;;4991741;28;20041;-87
2022/11/08 15:01:10;;;;;;;8.10;4.35;;;;;;;;;;4991215;28;20050;-92
2022/11/08 15:03:36;;;;;;;7.95;5.47;;;;;;;;;;4988396;28;20045;-86
2022/11/08 15:06:04;;;;;;;6.68;4.32;;;;;;;;;;4991931;28;20096;-86
2022/11/08 15:08:31;;;;;;;4.72;3.55;;;;;;;;;;4993196;28;20522;-88